Time;durP1;ratioP1;P1;durP2;ratioP2;P2;SDS_P1;SDS_P2;PMS_P1;PMS_P2;Temp;Humidity;BMP_temperature;BMP_pressure;BME280_temperature;BME280_humidity;BME280_pressure;Samples;Min_cycle;Max_cycle;Signal;HPM_P1;HPM_P2
2022/06/14 00:01:42;;;;;;;1.85;0.88;;;15.90;78.20;;;;;;5072962;28;20206;-69
2022/06/14 00:04:08;;;;;;;3.30;0.90;;;15.90;78.40;;;;;;5071579;28;20267;-71
2022/06/14 00:06:37;;;;;;;1.23;0.80;;;15.80;78.40;;;;;;5073207;28;20234;-71
2022/06/14 00:09:09;;;;;;;3.15;1.20;;;15.80;78.20;;;;;;5072940;28;20244;-70
2022/06/14 00:11:38;;;;;;;3.33;0.93;;;15.70;78.40;;;;;;5072634;28;20177;-71
2022/06/14 00:14:07;;;;;;;2.60;1.00;;;15.70;78.30;;;;;;5066789;28;20188;-71
2022/06/14 00:16:33;;;;;;;2.08;0.98;;;15.60;78.30;;;;;;5071430;28;20181;-70
2022/06/14 00:19:01;;;;;;;3.15;1.20;;;15.50;78.40;;;;;;5074251;28;20202;-70
2022/06/14 00:21:29;;;;;;;3.22;1.45;;;15.50;78.60;;;;;;5070518;28;20176;-70
2022/06/14 00:23:55;;;;;;;1.50;0.95;;;15.40;79.00;;;;;;5073368;28;20176;-69
2022/06/14 00:26:22;;;;;;;2.75;1.00;;;15.40;78.90;;;;;;5072668;28;20283;-70
2022/06/14 00:28:48;;;;;;;2.80;1.20;;;15.30;79.00;;;;;;5071483;28;20174;-69
2022/06/14 00:31:26;;;;;;;2.13;1.20;;;15.30;79.30;;;;;;5072326;28;20256;-69
2022/06/14 00:33:54;;;;;;;1.58;0.93;;;15.20;80.00;;;;;;5068398;28;20196;-69
2022/06/14 00:36:30;;;;;;;4.15;1.02;;;15.10;79.60;;;;;;5071443;28;20399;-70
2022/06/14 00:39:05;;;;;;;3.63;1.40;;;15.10;79.90;;;;;;5069849;28;20458;-68
2022/06/14 00:41:43;;;;;;;2.63;1.27;;;15.00;81.10;;;;;;5084276;28;20187;-70
2022/06/14 00:44:24;;;;;;;2.63;0.93;;;14.90;80.90;;;;;;5072176;28;20253;-69
2022/06/14 00:46:56;;;;;;;2.17;1.10;;;14.90;81.30;;;;;;5071819;28;20196;-70
2022/06/14 00:49:48;;;;;;;2.40;1.13;;;14.80;81.00;;;;;;5066432;28;20464;-70
2022/06/14 00:52:30;;;;;;;2.33;0.98;;;14.70;81.30;;;;;;5070084;28;20435;-69
2022/06/14 00:55:05;;;;;;;1.52;0.90;;;14.60;81.10;;;;;;5071296;28;20207;-70
2022/06/14 00:57:48;;;;;;;3.15;1.05;;;14.60;81.40;;;;;;5069636;28;20180;-69
2022/06/14 01:00:20;;;;;;;3.42;1.30;;;14.50;82.10;;;;;;5072612;28;20195;-70
2022/06/14 01:02:52;;;;;;;2.58;1.17;;;14.50;82.10;;;;;;5073358;28;20487;-70
2022/06/14 01:08:31;;;;;;;5.03;1.10;;;14.40;82.60;;;;;;5073600;28;20180;-70
2022/06/14 01:10:59;;;;;;;2.97;1.10;;;14.30;82.40;;;;;;5076057;28;20183;-69
2022/06/14 01:13:25;;;;;;;2.53;1.20;;;14.30;82.50;;;;;;5075295;28;20264;-68
2022/06/14 01:15:53;;;;;;;3.17;1.15;;;14.30;82.80;;;;;;5075979;28;20267;-68
2022/06/14 01:18:22;;;;;;;2.33;1.20;;;14.20;83.00;;;;;;5075145;28;20207;-69
2022/06/14 01:20:50;;;;;;;2.55;1.00;;;14.20;83.40;;;;;;5074001;28;20181;-69
2022/06/14 01:23:17;;;;;;;2.65;0.95;;;14.20;83.70;;;;;;5076113;28;20196;-69
2022/06/14 01:25:57;;;;;;;3.08;1.00;;;14.10;84.00;;;;;;5074840;28;20200;-70
2022/06/14 01:28:24;;;;;;;2.95;0.93;;;14.10;85.00;;;;;;5071162;28;21648;-70
2022/06/14 01:30:52;;;;;;;1.85;1.00;;;14.10;85.30;;;;;;5075393;28;20287;-69
2022/06/14 01:33:35;;;;;;;3.38;1.15;;;14.10;84.90;;;;;;5075805;28;20186;-69
2022/06/14 01:36:05;;;;;;;2.22;1.13;;;14.10;85.80;;;;;;5074740;28;20176;-70
2022/06/14 01:38:31;;;;;;;4.47;1.13;;;14.00;85.10;;;;;;5073916;28;20242;-69
2022/06/14 01:41:15;;;;;;;4.10;1.20;;;14.00;85.20;;;;;;5070342;28;20204;-70
2022/06/14 01:44:01;;;;;;;2.45;1.00;;;14.00;86.70;;;;;;5071074;28;20223;-69
2022/06/14 01:46:33;;;;;;;2.30;1.20;;;14.00;86.70;;;;;;5073030;28;20197;-69
2022/06/14 01:52:14;;;;;;;2.75;0.98;;;14.00;86.50;;;;;;5075018;28;20220;-70
2022/06/14 01:55:07;;;;;;;1.45;0.93;;;13.90;87.30;;;;;;5075265;28;20172;-69
2022/06/14 01:58:08;;;;;;;1.88;0.93;;;13.90;87.50;;;;;;5073637;28;20244;-69
2022/06/14 02:01:18;;;;;;;2.33;1.00;;;13.90;87.50;;;;;;5059644;28;20180;-69
2022/06/14 02:06:53;;;;;;;3.78;1.30;;;13.90;87.60;;;;;;5073132;28;20222;-69
2022/06/14 02:09:26;;;;;;;2.83;1.10;;;13.80;88.20;;;;;;5074301;28;20267;-69
2022/06/14 02:11:56;;;;;;;3.40;1.15;;;13.80;87.90;;;;;;5072707;28;20193;-70
2022/06/14 02:14:36;;;;;;;2.47;1.15;;;13.80;88.20;;;;;;5072406;28;20184;-69
2022/06/14 02:17:06;;;;;;;2.35;1.02;;;13.80;88.80;;;;;;5073050;28;20213;-69
2022/06/14 02:19:43;;;;;;;2.50;1.20;;;13.80;89.20;;;;;;5074699;28;20212;-69
2022/06/14 02:22:17;;;;;;;2.17;1.10;;;13.70;89.10;;;;;;5071444;28;20183;-69
2022/06/14 02:24:46;;;;;;;1.98;1.20;;;13.70;88.90;;;;;;5073123;28;20176;-70
2022/06/14 02:27:43;;;;;;;1.90;0.90;;;13.70;88.60;;;;;;5074280;28;20294;-70
2022/06/14 02:30:18;;;;;;;3.30;1.10;;;13.70;89.60;;;;;;5073588;28;20172;-70
2022/06/14 02:32:53;;;;;;;3.75;1.25;;;13.60;89.60;;;;;;5072801;28;20287;-69
2022/06/14 02:35:26;;;;;;;2.53;1.20;;;13.50;89.60;;;;;;5071609;28;20189;-69
2022/06/14 02:38:15;;;;;;;5.78;1.20;;;13.50;89.80;;;;;;5071126;28;20177;-70
2022/06/14 02:41:35;;;;;;;1.60;0.95;;;13.50;90.20;;;;;;5069611;28;20376;-70
2022/06/14 02:44:12;;;;;;;2.85;1.20;;;13.40;91.20;;;;;;4993553;28;20189;-69
2022/06/14 02:46:42;;;;;;;3.10;1.05;;;13.40;90.50;;;;;;5069551;28;20211;-69
2022/06/14 02:49:19;;;;;;;4.45;1.30;;;13.30;90.70;;;;;;5070634;28;20256;-69
2022/06/14 02:51:47;;;;;;;1.75;0.90;;;13.30;91.00;;;;;;5070498;28;20180;-69
2022/06/14 02:54:26;;;;;;;2.72;0.90;;;13.30;90.50;;;;;;5071836;28;20220;-69
2022/06/14 02:57:00;;;;;;;1.85;0.82;;;13.20;91.10;;;;;;5069199;28;20184;-70
2022/06/14 02:59:42;;;;;;;3.15;1.10;;;13.20;91.10;;;;;;5068553;28;20234;-70
2022/06/14 03:02:35;;;;;;;2.25;1.08;;;13.20;91.60;;;;;;5071668;28;20188;-69
2022/06/14 03:05:35;;;;;;;1.83;0.90;;;13.20;92.00;;;;;;5070176;28;20176;-70
2022/06/14 03:08:15;;;;;;;2.75;1.10;;;13.10;91.90;;;;;;5071504;28;20204;-70
2022/06/14 03:11:06;;;;;;;2.90;1.15;;;13.10;91.80;;;;;;5073209;28;20172;-69
2022/06/14 03:14:01;;;;;;;3.45;1.17;;;13.10;92.60;;;;;;5074641;28;20207;-69
2022/06/14 03:16:50;;;;;;;2.85;1.08;;;13.10;92.10;;;;;;5083911;28;20181;-69
2022/06/14 03:19:33;;;;;;;2.67;1.27;;;13.00;92.10;;;;;;5073268;28;20232;-70
2022/06/14 03:22:11;;;;;;;1.65;1.05;;;13.00;92.40;;;;;;5087200;28;20201;-69
2022/06/14 03:24:49;;;;;;;5.03;2.92;;;13.00;92.90;;;;;;5071768;28;20239;-70
2022/06/14 03:27:33;;;;;;;3.75;2.40;;;13.00;93.10;;;;;;5071985;28;20204;-70
2022/06/14 03:30:27;;;;;;;3.50;1.60;;;13.00;93.00;;;;;;5074038;28;20199;-69
2022/06/14 03:33:01;;;;;;;4.18;2.03;;;13.00;93.80;;;;;;5071092;28;20177;-69
2022/06/14 03:35:33;;;;;;;8.38;4.22;;;12.90;93.50;;;;;;5090109;28;20208;-75
2022/06/14 03:38:08;;;;;;;6.07;4.20;;;12.90;93.50;;;;;;5072810;28;20252;-74
2022/06/14 03:40:34;;;;;;;3.70;2.53;;;13.00;93.80;;;;;;5073477;28;20213;-68
2022/06/14 03:43:03;;;;;;;3.70;2.53;;;12.90;93.60;;;;;;5070360;28;20201;-74
2022/06/14 03:45:52;;;;;;;3.00;2.20;;;13.00;94.00;;;;;;5072256;28;20179;-74
2022/06/14 03:48:18;;;;;;;3.30;2.53;;;13.00;95.20;;;;;;5036113;28;20177;-71
2022/06/14 03:51:19;;;;;;;6.45;4.03;;;13.00;94.30;;;;;;5070260;28;20208;-75
2022/06/14 03:54:10;;;;;;;4.18;2.40;;;13.10;95.60;;;;;;5066915;28;20335;-74
2022/06/14 03:56:57;;;;;;;2.88;1.70;;;13.10;94.60;;;;;;5049568;28;20231;-75
2022/06/14 03:59:29;;;;;;;2.03;1.23;;;13.20;95.40;;;;;;5055954;28;20181;-73
2022/06/14 04:02:11;;;;;;;3.33;1.20;;;13.20;95.00;;;;;;5072827;28;20367;-74
2022/06/14 04:04:47;;;;;;;2.85;1.48;;;13.20;95.20;;;;;;5065100;28;20193;-74
2022/06/14 04:07:41;;;;;;;2.25;1.33;;;13.20;95.70;;;;;;5056677;28;20211;-74
2022/06/14 04:10:17;;;;;;;1.48;1.08;;;13.20;96.30;;;;;;5053869;28;20242;-74
2022/06/14 04:13:07;;;;;;;2.17;1.20;;;13.20;95.90;;;;;;5070880;28;20339;-74
2022/06/14 04:15:55;;;;;;;2.92;1.20;;;13.30;96.30;;;;;;5060875;28;20177;-71
2022/06/14 04:18:50;;;;;;;2.85;1.20;;;13.30;96.00;;;;;;5062464;28;20376;-72
2022/06/14 04:21:33;;;;;;;2.72;1.30;;;13.30;96.10;;;;;;5069118;28;20194;-74
2022/06/14 04:24:37;;;;;;;2.42;1.35;;;13.30;95.40;;;;;;5071300;28;20188;-74
2022/06/14 04:27:12;;;;;;;2.70;1.10;;;13.30;96.30;;;;;;5058960;28;20208;-72
2022/06/14 04:30:08;;;;;;;2.58;1.42;;;13.30;96.20;;;;;;5068593;28;20172;-74
2022/06/14 04:32:44;;;;;;;2.65;1.40;;;13.30;96.30;;;;;;5067321;28;20197;-74
2022/06/14 04:35:26;;;;;;;5.32;1.38;;;13.30;96.30;;;;;;5078224;28;20180;-68
2022/06/14 04:38:00;;;;;;;2.72;1.20;;;13.40;96.40;;;;;;5060182;28;20193;-74
2022/06/14 04:40:34;;;;;;;2.00;1.20;;;13.40;96.50;;;;;;5071638;28;20237;-76
2022/06/14 04:43:10;;;;;;;2.75;1.20;;;13.40;96.40;;;;;;5063065;28;20180;-76
2022/06/14 04:45:46;;;;;;;2.97;1.20;;;13.40;96.60;;;;;;5072212;28;20207;-78
2022/06/14 04:48:37;;;;;;;3.47;1.27;;;13.40;96.30;;;;;;5072461;28;20210;-76
2022/06/14 04:51:16;;;;;;;2.92;1.02;;;13.40;96.20;;;;;;5055529;28;20203;-76
2022/06/14 04:53:57;;;;;;;2.40;1.10;;;13.40;96.50;;;;;;5071214;28;20237;-75
2022/06/14 04:56:33;;;;;;;2.40;1.25;;;13.50;96.50;;;;;;5064196;28;20189;-75
2022/06/14 04:59:26;;;;;;;3.80;1.48;;;13.50;96.80;;;;;;5072037;28;20204;-76
2022/06/14 05:02:02;;;;;;;2.25;1.17;;;13.50;96.80;;;;;;5068768;28;20447;-76
2022/06/14 05:04:39;;;;;;;3.53;1.30;;;13.60;96.70;;;;;;5072737;28;20172;-73
2022/06/14 05:07:08;;;;;;;3.13;1.40;;;13.60;96.80;;;;;;5062967;28;20264;-75
2022/06/14 05:09:51;;;;;;;5.20;1.08;;;13.60;96.80;;;;;;5072904;28;20264;-75
2022/06/14 05:12:36;;;;;;;3.25;1.20;;;13.60;97.00;;;;;;5056352;28;20253;-76
2022/06/14 05:15:17;;;;;;;3.88;1.17;;;13.60;96.90;;;;;;5072535;28;20196;-74
2022/06/14 05:18:01;;;;;;;1.95;1.20;;;13.60;97.10;;;;;;5072951;28;20167;-73
2022/06/14 05:20:36;;;;;;;2.95;1.58;;;13.60;97.30;;;;;;5069436;28;20185;-75
2022/06/14 05:23:05;;;;;;;3.20;1.67;;;13.70;97.00;;;;;;5078682;28;20172;-76
2022/06/14 05:25:51;;;;;;;4.28;1.27;;;13.70;96.90;;;;;;5077741;28;20180;-74
2022/06/14 05:28:32;;;;;;;2.92;1.15;;;13.70;97.40;;;;;;5084647;28;20169;-74
2022/06/14 05:31:11;;;;;;;3.03;1.40;;;13.70;97.80;;;;;;5072456;28;20602;-73
2022/06/14 05:33:53;;;;;;;3.13;1.17;;;13.80;97.50;;;;;;5070817;28;20173;-74
2022/06/14 05:36:27;;;;;;;1.92;1.02;;;13.80;97.70;;;;;;5059888;28;20187;-74
2022/06/14 05:39:26;;;;;;;3.83;1.13;;;13.90;98.00;;;;;;5071976;28;20261;-75
2022/06/14 05:42:02;;;;;;;3.20;1.23;;;14.00;98.50;;;;;;5042058;28;20240;-75
2022/06/14 05:44:35;;;;;;;2.88;1.30;;;14.10;98.00;;;;;;5068643;28;20227;-75
2022/06/14 05:47:12;;;;;;;3.90;1.20;;;14.10;97.90;;;;;;5074165;28;20188;-75
2022/06/14 05:49:46;;;;;;;3.95;1.52;;;14.20;98.00;;;;;;5075891;28;20196;-76
2022/06/14 05:52:15;;;;;;;3.70;1.60;;;14.20;97.80;;;;;;5075491;28;20192;-74
2022/06/14 05:54:52;;;;;;;3.33;1.35;;;14.20;97.70;;;;;;5075219;28;20176;-75
2022/06/14 05:58:07;;;;;;;3.63;1.55;;;14.30;98.20;;;;;;5075768;28;20228;-72
2022/06/14 06:00:43;;;;;;;5.60;1.42;;;14.40;98.30;;;;;;4987049;28;20234;-72
2022/06/14 06:03:30;;;;;;;3.00;1.25;;;14.40;98.60;;;;;;5075893;28;20178;-75
2022/06/14 06:06:16;;;;;;;3.92;1.35;;;14.50;98.60;;;;;;5075386;28;20201;-74
2022/06/14 06:08:51;;;;;;;4.90;1.20;;;14.50;98.60;;;;;;5071123;28;20185;-75
2022/06/14 06:11:22;;;;;;;3.67;1.50;;;14.60;98.50;;;;;;5075600;28;20172;-72
2022/06/14 06:13:51;;;;;;;3.50;1.77;;;14.70;98.60;;;;;;5075692;28;20169;-75
2022/06/14 06:16:21;;;;;;;3.10;1.73;;;14.80;98.60;;;;;;5075606;28;20176;-74
2022/06/14 06:18:49;;;;;;;5.53;2.00;;;14.90;98.90;;;;;;5078606;28;20384;-74
2022/06/14 06:21:29;;;;;;;2.78;1.60;;;14.90;98.80;;;;;;5069063;28;20204;-75
2022/06/14 06:24:09;;;;;;;5.90;2.03;;;15.00;99.20;;;;;;5057856;28;20291;-71
2022/06/14 06:26:40;;;;;;;3.45;1.88;;;15.10;98.90;;;;;;5075156;28;20223;-73
2022/06/14 06:29:16;;;;;;;2.85;1.60;;;15.20;99.10;;;;;;5086733;28;20245;-75
2022/06/14 06:31:44;;;;;;;3.63;1.48;;;15.30;99.20;;;;;;5074608;28;20200;-75
2022/06/14 06:34:18;;;;;;;4.82;2.03;;;15.30;99.00;;;;;;5071620;28;20168;-74
2022/06/14 06:36:55;;;;;;;9.50;2.25;;;15.40;99.30;;;;;;5077240;28;20188;-74
2022/06/14 06:39:21;;;;;;;6.65;2.53;;;15.50;99.40;;;;;;5073149;28;20193;-74
2022/06/14 06:41:50;;;;;;;4.63;1.73;;;15.60;99.20;;;;;;5073911;28;20203;-71
2022/06/14 06:44:38;;;;;;;5.25;1.80;;;15.60;99.20;;;;;;5072273;28;20205;-75
2022/06/14 06:47:19;;;;;;;5.63;1.55;;;15.70;99.50;;;;;;5074586;28;20201;-73
2022/06/14 06:50:08;;;;;;;3.03;1.67;;;15.80;99.30;;;;;;5074708;28;20175;-76
2022/06/14 06:52:40;;;;;;;4.32;2.05;;;15.90;99.10;;;;;;5074451;28;20173;-76
2022/06/14 06:55:14;;;;;;;4.90;1.80;;;15.90;99.20;;;;;;5074585;28;20192;-75
2022/06/14 06:57:47;;;;;;;5.18;1.90;;;15.90;99.30;;;;;;5073879;28;20197;-75
2022/06/14 07:00:17;;;;;;;2.67;1.55;;;16.00;99.50;;;;;;5074138;28;20260;-75
2022/06/14 07:03:09;;;;;;;4.68;2.05;;;15.90;99.20;;;;;;5071233;28;20204;-72
2022/06/14 07:05:35;;;;;;;6.35;1.70;;;16.00;99.30;;;;;;5064315;28;20311;-74
2022/06/14 07:08:16;;;;;;;4.18;2.10;;;16.10;99.10;;;;;;5073987;28;20213;-74
2022/06/14 07:10:50;;;;;;;3.90;2.10;;;16.10;99.40;;;;;;5073803;28;20216;-75
2022/06/14 07:13:34;;;;;;;5.57;2.25;;;16.20;99.30;;;;;;5072286;28;20173;-76
2022/06/14 07:16:13;;;;;;;6.18;2.53;;;16.20;99.50;;;;;;5070478;28;20180;-75
2022/06/14 07:18:54;;;;;;;6.18;2.10;;;16.30;99.40;;;;;;5075132;28;20207;-76
2022/06/14 07:21:31;;;;;;;3.10;1.77;;;16.40;99.30;;;;;;5071541;28;20176;-74
2022/06/14 07:24:04;;;;;;;3.42;2.20;;;16.40;99.40;;;;;;5074536;28;20247;-72
2022/06/14 07:27:05;;;;;;;4.70;2.08;;;16.50;99.60;;;;;;5062475;28;20200;-75
2022/06/14 07:29:47;;;;;;;4.38;1.85;;;16.60;99.70;;;;;;5059920;28;20337;-76
2022/06/14 07:32:36;;;;;;;5.05;2.15;;;16.60;99.60;;;;;;5072686;28;20176;-76
2022/06/14 07:35:02;;;;;;;6.05;2.13;;;16.70;99.70;;;;;;5073708;28;20173;-75
2022/06/14 07:37:39;;;;;;;4.40;2.10;;;16.80;99.60;;;;;;5070100;28;20256;-73
2022/06/14 07:40:11;;;;;;;5.82;2.15;;;16.90;99.80;;;;;;5073786;28;20196;-77
2022/06/14 07:43:11;;;;;;;4.63;1.90;;;16.90;99.60;;;;;;5072784;28;20206;-74
2022/06/14 07:45:42;;;;;;;3.47;1.98;;;17.00;99.50;;;;;;5067489;28;20188;-76
2022/06/14 07:48:15;;;;;;;4.25;2.10;;;17.10;99.50;;;;;;5073167;28;20191;-76
2022/06/14 07:50:41;;;;;;;4.10;1.88;;;17.10;99.40;;;;;;5069734;28;20199;-75
2022/06/14 07:53:18;;;;;;;7.40;2.20;;;17.10;99.40;;;;;;5073527;28;20177;-76
2022/06/14 07:55:53;;;;;;;5.57;1.83;;;17.20;99.50;;;;;;5072966;28;20207;-76
2022/06/14 07:58:30;;;;;;;4.97;2.10;;;17.20;99.40;;;;;;5073225;28;20207;-75
2022/06/14 08:01:07;;;;;;;4.38;2.00;;;17.30;99.30;;;;;;5072268;28;20184;-75
2022/06/14 08:04:00;;;;;;;4.35;2.10;;;17.40;99.10;;;;;;5068861;28;20173;-77
2022/06/14 08:06:35;;;;;;;4.82;1.90;;;17.40;98.90;;;;;;5060694;28;20479;-72
2022/06/14 08:09:26;;;;;;;3.88;1.55;;;17.50;99.10;;;;;;5063078;28;20222;-76
2022/06/14 08:12:00;;;;;;;4.57;1.70;;;17.50;98.90;;;;;;5065632;28;20211;-75
2022/06/14 08:14:34;;;;;;;3.75;1.77;;;17.60;99.10;;;;;;5072845;28;20195;-75
2022/06/14 08:17:01;;;;;;;4.13;2.00;;;17.70;99.30;;;;;;5068118;28;20211;-75
2022/06/14 08:19:48;;;;;;;5.38;2.08;;;17.80;99.40;;;;;;5063695;28;20181;-73
2022/06/14 08:22:18;;;;;;;6.05;2.00;;;17.90;99.20;;;;;;5068278;28;20203;-74
2022/06/14 08:24:49;;;;;;;4.32;2.10;;;17.90;99.50;;;;;;5072802;28;20207;-76
2022/06/14 08:27:22;;;;;;;4.10;1.88;;;18.00;99.10;;;;;;5064577;28;20204;-77
2022/06/14 08:29:51;;;;;;;4.07;2.05;;;18.10;99.30;;;;;;5064795;28;20172;-76
2022/06/14 08:32:32;;;;;;;5.07;1.80;;;18.10;99.00;;;;;;5068009;28;20173;-77
2022/06/14 08:35:23;;;;;;;4.65;2.00;;;18.20;98.80;;;;;;5067337;28;20195;-77
2022/06/14 08:37:58;;;;;;;3.65;1.88;;;18.20;98.70;;;;;;5069047;28;20173;-76
2022/06/14 08:40:46;;;;;;;3.40;1.52;;;18.30;98.80;;;;;;5072321;28;20208;-76
2022/06/14 08:43:29;;;;;;;4.60;2.00;;;18.40;99.00;;;;;;5067051;28;20253;-73
2022/06/14 08:46:05;;;;;;;7.03;2.08;;;18.40;98.80;;;;;;5066937;28;20289;-73
2022/06/14 08:48:47;;;;;;;4.32;1.83;;;18.50;98.80;;;;;;5072396;28;20181;-74
2022/06/14 08:51:50;;;;;;;4.88;2.08;;;18.60;98.80;;;;;;5060684;28;20218;-73
2022/06/14 08:55:00;;;;;;;3.45;1.70;;;18.70;98.50;;;;;;5072835;28;20265;-73
2022/06/14 08:57:34;;;;;;;4.82;1.95;;;18.70;98.40;;;;;;5045767;28;20207;-71
2022/06/14 09:00:26;;;;;;;5.25;1.80;;;18.80;98.40;;;;;;5070746;28;20196;-76
2022/06/14 09:03:03;;;;;;;4.15;1.92;;;18.90;98.40;;;;;;5077788;28;20212;-75
2022/06/14 09:05:38;;;;;;;3.38;1.80;;;18.90;98.30;;;;;;5064587;28;20218;-72
2022/06/14 09:08:12;;;;;;;2.63;1.40;;;19.00;98.40;;;;;;5072963;28;20188;-74
2022/06/14 09:10:56;;;;;;;6.50;2.35;;;19.10;97.90;;;;;;5062066;28;20183;-75
2022/06/14 09:13:33;;;;;;;4.32;2.15;;;19.20;98.10;;;;;;5072494;28;20168;-74
2022/06/14 09:16:14;;;;;;;6.32;2.08;;;19.20;97.90;;;;;;5070418;28;20181;-72
2022/06/14 09:18:53;;;;;;;4.90;1.70;;;19.30;97.40;;;;;;5070724;28;20200;-72
2022/06/14 09:21:30;;;;;;;5.32;1.90;;;19.40;97.40;;;;;;5073416;28;20181;-74
2022/06/14 09:24:29;;;;;;;4.60;2.00;;;19.40;97.50;;;;;;5068442;28;20177;-75
2022/06/14 09:26:58;;;;;;;5.15;1.80;;;19.50;96.90;;;;;;5066692;28;20219;-74
2022/06/14 09:29:40;;;;;;;3.45;1.90;;;19.60;97.40;;;;;;5075490;28;20188;-74
2022/06/14 09:32:21;;;;;;;6.10;1.73;;;19.70;97.70;;;;;;5076183;28;20168;-72
2022/06/14 09:35:10;;;;;;;5.82;1.77;;;19.70;97.60;;;;;;5075924;28;20184;-75
2022/06/14 09:37:41;;;;;;;5.28;1.80;;;19.90;97.70;;;;;;5057775;28;20288;-73
2022/06/14 09:40:31;;;;;;;6.13;1.85;;;20.00;97.50;;;;;;5069994;28;20181;-75
2022/06/14 09:43:15;;;;;;;3.97;1.60;;;20.00;96.50;;;;;;5069549;28;20231;-73
2022/06/14 09:45:59;;;;;;;2.85;1.70;;;20.10;96.60;;;;;;5070816;28;20211;-75
2022/06/14 09:49:04;;;;;;;5.10;1.65;;;20.20;96.50;;;;;;5070209;28;20264;-75
2022/06/14 09:51:48;;;;;;;2.05;1.25;;;20.30;96.40;;;;;;5069182;28;20230;-75
2022/06/14 09:54:45;;;;;;;3.50;1.85;;;20.40;96.40;;;;;;5074992;28;20177;-74
2022/06/14 09:57:33;;;;;;;6.72;1.98;;;20.40;95.90;;;;;;5066206;28;20219;-74
2022/06/14 10:00:21;;;;;;;3.42;1.50;;;20.50;95.20;;;;;;5071931;28;20246;-75
2022/06/14 10:03:02;;;;;;;4.97;2.10;;;20.60;95.10;;;;;;5074690;28;20192;-75
2022/06/14 10:06:12;;;;;;;4.18;1.60;;;20.60;94.00;;;;;;5070877;28;20195;-70
2022/06/14 10:09:18;;;;;;;5.13;2.00;;;20.60;94.50;;;;;;5076737;28;20187;-76
2022/06/14 10:12:13;;;;;;;5.25;1.85;;;20.60;94.20;;;;;;5056145;28;20177;-76
2022/06/14 10:15:03;;;;;;;3.60;1.75;;;20.70;94.20;;;;;;5065514;28;20242;-74
2022/06/14 10:17:41;;;;;;;3.97;1.48;;;20.70;94.80;;;;;;5071014;28;20173;-75
2022/06/14 10:20:15;;;;;;;4.30;1.55;;;20.80;94.90;;;;;;5067875;28;20177;-75
2022/06/14 10:23:06;;;;;;;5.85;1.70;;;20.90;94.70;;;;;;5069166;28;20215;-73
2022/06/14 10:29:08;;;;;;;3.88;1.58;;;21.00;93.10;;;;;;5036448;28;20178;-76
2022/06/14 10:31:55;;;;;;;3.83;1.50;;;21.10;93.10;;;;;;5071561;28;20267;-74
2022/06/14 10:34:41;;;;;;;3.25;1.25;;;21.20;92.90;;;;;;5073912;28;20188;-74
2022/06/14 10:37:38;;;;;;;3.22;1.40;;;21.30;92.60;;;;;;5075620;28;20191;-74
2022/06/14 10:40:33;;;;;;;4.43;1.40;;;21.50;92.60;;;;;;5085723;28;20225;-75
2022/06/14 10:43:16;;;;;;;2.75;1.48;;;21.70;93.20;;;;;;5071931;28;20302;-75
2022/06/14 10:45:54;;;;;;;2.45;1.67;;;22.00;93.00;;;;;;5074260;28;20184;-73
2022/06/14 10:48:59;;;;;;;2.78;1.35;;;22.30;93.20;;;;;;5063244;28;20171;-74
2022/06/14 10:52:01;;;;;;;4.25;1.45;;;22.60;92.10;;;;;;5053080;28;20262;-76
2022/06/14 10:54:49;;;;;;;1.63;1.20;;;22.80;92.00;;;;;;5072657;28;20411;-72
2022/06/14 10:57:45;;;;;;;4.60;1.63;;;23.10;91.20;;;;;;5074139;28;20197;-76
2022/06/14 11:00:22;;;;;;;3.17;1.80;;;23.40;90.30;;;;;;5072734;28;20202;-74
2022/06/14 11:03:10;;;;;;;4.05;1.63;;;23.60;91.40;;;;;;5074587;28;20176;-74
2022/06/14 11:05:44;;;;;;;8.18;1.98;;;23.80;91.20;;;;;;5066932;28;20193;-74
2022/06/14 11:08:37;;;;;;;3.35;1.90;;;24.00;92.10;;;;;;5063255;28;20172;-75
2022/06/14 11:11:21;;;;;;;3.92;1.65;;;24.20;91.70;;;;;;5073856;28;20180;-74
2022/06/14 11:13:52;;;;;;;4.60;2.13;;;24.40;92.80;;;;;;5073763;28;20173;-74
2022/06/14 11:16:39;;;;;;;3.03;1.70;;;24.60;91.70;;;;;;5070441;28;20187;-75
2022/06/14 11:19:35;;;;;;;5.65;2.03;;;24.80;89.90;;;;;;5073788;28;20291;-74
2022/06/14 11:22:34;;;;;;;3.55;1.88;;;25.00;90.70;;;;;;5069438;28;20195;-76
2022/06/14 11:25:25;;;;;;;3.92;1.75;;;25.20;90.00;;;;;;5073823;28;20323;-76
2022/06/14 11:27:54;;;;;;;2.78;1.55;;;25.40;88.30;;;;;;5070592;28;20285;-76
2022/06/14 11:30:42;;;;;;;2.97;1.50;;;25.50;91.00;;;;;;5073366;28;20204;-76
2022/06/14 11:33:27;;;;;;;8.25;2.45;;;25.70;88.10;;;;;;5072434;28;20237;-76
2022/06/14 11:36:12;;;;;;;4.18;2.17;;;25.80;90.10;;;;;;5056197;28;20181;-76
2022/06/14 11:39:24;;;;;;;4.88;2.20;;;26.00;84.50;;;;;;5077351;28;20185;-75
2022/06/14 11:41:51;;;;;;;3.47;1.85;;;26.10;85.10;;;;;;5074487;28;20192;-75
2022/06/14 11:45:03;;;;;;;3.72;1.95;;;26.20;87.60;;;;;;5073848;28;20204;-74
2022/06/14 11:47:36;;;;;;;4.35;2.10;;;26.30;83.50;;;;;;5056074;28;20205;-71
2022/06/14 11:50:33;;;;;;;5.30;1.90;;;26.40;83.90;;;;;;5065612;28;20219;-75
2022/06/14 11:53:28;;;;;;;2.83;1.60;;;26.40;80.10;;;;;;5073418;28;20173;-76
2022/06/14 11:56:03;;;;;;;3.33;1.65;;;26.40;80.10;;;;;;5072723;28;20385;-75
2022/06/14 11:58:40;;;;;;;3.40;1.70;;;26.50;80.50;;;;;;5071944;28;20172;-77
2022/06/14 12:01:24;;;;;;;3.53;1.80;;;26.60;79.60;;;;;;5072947;28;20182;-75
2022/06/14 12:04:11;;;;;;;3.05;1.80;;;26.70;77.90;;;;;;5080708;28;20209;-77
2022/06/14 12:07:09;;;;;;;4.28;1.75;;;26.80;77.20;;;;;;5063546;28;20264;-76
2022/06/14 12:09:59;;;;;;;4.25;2.05;;;26.90;73.50;;;;;;5035522;28;20188;-76
2022/06/14 12:12:58;;;;;;;3.15;1.55;;;27.00;75.70;;;;;;5071108;28;20183;-76
2022/06/14 12:15:44;;;;;;;4.28;1.98;;;27.10;74.40;;;;;;5086149;28;20200;-78
2022/06/14 12:18:14;;;;;;;3.75;1.90;;;27.20;66.60;;;;;;5083555;28;20181;-77
2022/06/14 12:20:47;;;;;;;3.88;2.10;;;27.30;71.50;;;;;;5054023;28;20181;-77
2022/06/14 12:23:25;;;;;;;4.03;1.85;;;27.30;69.80;;;;;;5062258;28;20232;-72
2022/06/14 12:28:54;;;;;;;3.30;1.70;;;27.20;66.70;;;;;;5073338;28;20354;-75
2022/06/14 12:31:43;;;;;;;4.00;1.70;;;27.20;67.90;;;;;;5067659;28;20188;-76
2022/06/14 12:34:40;;;;;;;4.18;1.65;;;27.30;66.70;;;;;;5072723;28;20189;-76
2022/06/14 12:37:05;;;;;;;3.13;1.40;;;27.30;64.70;;;;;;5072341;28;20200;-75
2022/06/14 12:39:36;;;;;;;3.85;1.98;;;27.40;66.50;;;;;;5065256;28;20192;-76
2022/06/14 12:42:15;;;;;;;3.22;1.50;;;27.50;64.60;;;;;;5068299;28;20212;-77
2022/06/14 12:44:51;;;;;;;3.65;1.50;;;27.50;63.00;;;;;;5085574;28;20187;-76
2022/06/14 12:47:32;;;;;;;3.50;1.70;;;27.60;63.00;;;;;;5063366;28;20229;-76
2022/06/14 12:50:11;;;;;;;2.60;1.20;;;27.70;63.70;;;;;;5064290;28;20276;-74
2022/06/14 12:52:46;;;;;;;3.92;1.50;;;27.80;62.00;;;;;;5082548;28;20208;-78
2022/06/14 12:55:31;;;;;;;5.88;1.63;;;27.90;62.50;;;;;;5060905;28;20223;-75
2022/06/14 12:58:15;;;;;;;2.53;1.50;;;28.00;61.60;;;;;;5077044;28;20188;-76
2022/06/14 13:00:43;;;;;;;2.35;1.30;;;27.90;58.40;;;;;;5076430;28;20203;-77
2022/06/14 13:03:17;;;;;;;3.05;1.23;;;27.80;60.10;;;;;;5075957;28;20181;-74
2022/06/14 13:05:51;;;;;;;3.05;1.40;;;27.90;59.40;;;;;;5069007;28;20188;-77
2022/06/14 13:08:49;;;;;;;2.35;1.20;;;27.90;58.50;;;;;;5062209;28;20195;-75
2022/06/14 13:11:22;;;;;;;3.75;1.40;;;28.00;57.90;;;;;;5076597;28;20176;-76
2022/06/14 13:14:17;;;;;;;3.03;1.42;;;28.00;57.20;;;;;;5076154;28;20250;-76
2022/06/14 13:16:58;;;;;;;2.97;1.42;;;28.10;55.90;;;;;;5079294;28;20193;-78
2022/06/14 13:19:47;;;;;;;2.75;1.10;;;28.10;56.40;;;;;;5074846;28;20209;-77
2022/06/14 13:22:40;;;;;;;3.08;1.20;;;28.20;57.70;;;;;;5077631;28;20188;-76
2022/06/14 13:25:21;;;;;;;2.55;1.10;;;28.40;55.90;;;;;;5073609;28;20185;-76
2022/06/14 13:28:18;;;;;;;2.17;1.00;;;28.40;54.80;;;;;;5078580;28;21765;-76
2022/06/14 13:30:53;;;;;;;2.08;1.17;;;28.60;55.10;;;;;;5067490;28;20176;-76
2022/06/14 13:33:30;;;;;;;1.60;1.02;;;28.60;53.60;;;;;;5074889;28;20196;-77
2022/06/14 13:36:19;;;;;;;3.30;1.30;;;28.70;54.10;;;;;;5070722;28;20187;-76
2022/06/14 13:38:54;;;;;;;2.30;1.30;;;28.70;54.90;;;;;;5042729;28;20185;-77
2022/06/14 13:42:00;;;;;;;3.08;1.23;;;28.80;53.70;;;;;;5072747;28;20203;-77
2022/06/14 13:44:39;;;;;;;2.80;1.27;;;28.90;53.70;;;;;;5074946;28;20180;-77
2022/06/14 13:47:17;;;;;;;2.95;1.30;;;29.00;54.20;;;;;;5072155;28;20273;-76
2022/06/14 13:49:53;;;;;;;2.28;1.10;;;29.00;53.30;;;;;;5063829;28;20181;-75
2022/06/14 13:52:30;;;;;;;2.92;1.30;;;29.20;53.10;;;;;;5062588;28;20193;-74
2022/06/14 13:54:59;;;;;;;3.05;1.50;;;29.30;52.40;;;;;;5072361;28;20176;-77
2022/06/14 13:57:52;;;;;;;2.42;1.27;;;29.40;53.40;;;;;;5075166;28;20177;-76
2022/06/14 14:00:24;;;;;;;3.90;1.20;;;29.50;50.90;;;;;;5076062;28;20184;-76
2022/06/14 14:03:21;;;;;;;2.22;1.00;;;29.60;52.40;;;;;;5075143;28;20160;-77
2022/06/14 14:06:11;;;;;;;2.40;1.10;;;29.70;51.00;;;;;;5075765;28;20496;-76
2022/06/14 14:09:04;;;;;;;2.55;1.27;;;29.80;51.60;;;;;;5069089;28;20180;-75
2022/06/14 14:11:50;;;;;;;1.63;1.00;;;29.90;50.20;;;;;;5071868;28;20190;-74
2022/06/14 14:14:49;;;;;;;2.28;1.15;;;29.90;50.00;;;;;;5075965;28;20191;-77